Time;durP1;ratioP1;P1;durP2;ratioP2;P2;SDS_P1;SDS_P2;PMS_P1;PMS_P2;Temp;Humidity;BMP_temperature;BMP_pressure;BME280_temperature;BME280_humidity;BME280_pressure;Samples;Min_cycle;Max_cycle;Signal;HPM_P1;HPM_P2
2022/05/19 00:02:14;;;;;;;2.57;2.13;;;25.30;49.80;;;-142.21;57.85;112049.66;5093370;28;20200;-72
2022/05/19 00:04:43;;;;;;;3.87;2.40;;;25.20;50.00;;;-142.21;58.19;112049.66;5073888;28;20232;-71
2022/05/19 00:07:11;;;;;;;3.13;2.30;;;25.20;50.10;;;-142.21;58.28;112049.66;5085812;28;20295;-72
2022/05/19 00:09:39;;;;;;;2.57;2.37;;;25.10;50.20;;;-142.21;58.25;112049.66;5085424;28;20341;-72
2022/05/19 00:12:11;;;;;;;2.33;2.13;;;25.10;50.30;;;-142.21;59.06;112049.66;5091396;28;20315;-72
2022/05/19 00:14:40;;;;;;;4.53;2.40;;;25.00;50.50;;;-142.21;58.81;112049.66;5073692;28;20185;-72
2022/05/19 00:17:07;;;;;;;3.03;2.40;;;25.00;50.50;;;-142.21;59.51;112049.66;5085435;28;20203;-72
2022/05/19 00:19:34;;;;;;;4.60;2.77;;;24.90;50.70;;;-142.21;59.58;112049.66;5080486;28;20201;-72
2022/05/19 00:22:02;;;;;;;4.67;2.40;;;24.80;50.50;;;-142.21;59.99;112049.66;5076917;28;20288;-72
2022/05/19 00:24:30;;;;;;;2.60;2.40;;;24.80;50.70;;;-142.21;60.25;112049.66;5093909;28;20205;-72
2022/05/19 00:26:57;;;;;;;3.70;2.57;;;24.70;50.70;;;-142.21;60.41;112049.66;5081987;28;20205;-72
2022/05/19 00:29:24;;;;;;;4.27;2.70;;;24.70;50.80;;;-142.21;60.24;112049.66;5066555;28;20317;-72
2022/05/19 00:31:54;;;;;;;2.93;2.60;;;24.70;50.80;;;-142.21;60.95;112049.66;5083605;28;20196;-72
2022/05/19 00:34:21;;;;;;;2.43;2.23;;;24.60;51.10;;;-142.21;61.08;112049.66;5081134;28;20232;-72
2022/05/19 00:36:49;;;;;;;3.43;2.47;;;24.60;51.10;;;-142.21;61.08;112049.66;5081584;28;20236;-72
2022/05/19 00:39:16;;;;;;;3.23;2.40;;;24.60;51.10;;;-142.21;61.66;112049.66;5076854;28;20251;-72
2022/05/19 00:41:45;;;;;;;2.47;2.00;;;24.50;51.20;;;-142.21;61.94;112049.66;5082564;28;20207;-72
2022/05/19 00:44:12;;;;;;;2.47;2.27;;;24.50;51.40;;;-142.21;62.97;112049.66;5073729;28;20293;-71
2022/05/19 00:46:50;;;;;;;2.40;2.20;;;24.40;52.00;;;-142.21;61.92;112049.66;5076183;28;20203;-72
2022/05/19 00:49:24;;;;;;;4.00;2.67;;;24.40;51.40;;;-142.21;62.39;112049.66;5084836;28;20518;-72
2022/05/19 00:51:58;;;;;;;2.30;2.13;;;24.40;51.50;;;-142.21;63.59;112049.66;5091889;28;20200;-72
2022/05/19 00:54:33;;;;;;;3.67;2.50;;;24.30;51.80;;;-142.21;63.71;112049.66;5091137;28;20195;-72
2022/05/19 00:57:09;;;;;;;2.93;2.50;;;24.30;51.80;;;-142.21;63.56;112049.66;5078811;28;20192;-72
2022/05/19 00:59:44;;;;;;;2.43;2.23;;;24.30;51.80;;;-142.21;62.58;112049.66;5093201;28;20192;-72
2022/05/19 01:02:16;;;;;;;3.23;2.43;;;24.20;51.50;;;-142.21;62.29;112049.66;5077103;28;20238;-73
2022/05/19 01:04:52;;;;;;;2.50;2.30;;;24.20;51.40;;;-142.21;61.57;112049.66;5052639;28;20252;-72
2022/05/19 01:07:33;;;;;;;2.37;2.17;;;24.20;51.40;;;-142.21;61.10;112049.66;5082196;28;20189;-72
2022/05/19 01:10:00;;;;;;;2.97;2.60;;;24.20;51.20;;;-142.21;61.49;112049.66;5073657;28;20557;-73
2022/05/19 01:12:29;;;;;;;3.37;2.47;;;24.20;51.30;;;-142.21;61.21;112049.66;5086832;28;20566;-72
2022/05/19 01:14:56;;;;;;;2.40;2.13;;;24.20;51.20;;;-142.21;60.76;112049.66;5079889;28;20230;-72
2022/05/19 01:17:24;;;;;;;2.57;2.20;;;24.20;51.10;;;-142.21;60.89;112049.66;5078517;28;20208;-72
2022/05/19 01:20:00;;;;;;;3.33;2.60;;;24.20;51.10;;;-142.21;60.64;112049.66;5093026;28;20295;-72
2022/05/19 01:22:39;;;;;;;2.87;2.00;;;24.20;51.10;;;-142.21;59.90;112049.66;5091866;28;20194;-72
2022/05/19 01:25:16;;;;;;;2.50;2.30;;;24.20;50.90;;;-142.21;59.18;112049.66;5083588;28;20197;-72
2022/05/19 01:27:45;;;;;;;2.40;2.20;;;24.20;50.70;;;-142.21;59.05;112049.66;5076244;28;20206;-72
2022/05/19 01:30:13;;;;;;;2.40;2.27;;;24.20;50.70;;;-142.21;59.42;112049.66;5074146;28;20419;-73
2022/05/19 01:32:41;;;;;;;4.20;2.30;;;24.20;50.80;;;-142.21;59.44;112049.66;5045509;28;20205;-72
2022/05/19 01:35:09;;;;;;;2.57;2.37;;;24.20;50.80;;;-142.21;59.55;112049.66;5069002;28;20201;-72
2022/05/19 01:37:37;;;;;;;3.10;2.50;;;24.20;50.90;;;-142.21;59.81;112049.66;5084731;28;20280;-73
2022/05/19 01:40:12;;;;;;;2.50;2.30;;;24.20;50.90;;;-142.21;60.08;112049.66;5072729;28;20304;-72
2022/05/19 01:42:56;;;;;;;2.63;2.30;;;24.10;50.90;;;-142.21;59.80;112049.66;5074125;28;20198;-72
2022/05/19 01:45:55;;;;;;;2.40;2.20;;;24.10;50.90;;;-142.21;59.99;112049.66;5074363;28;20218;-72
2022/05/19 01:48:33;;;;;;;2.90;2.60;;;24.10;50.90;;;-142.21;60.07;112049.66;5076727;28;20656;-72
2022/05/19 01:51:11;;;;;;;2.57;2.20;;;24.10;51.00;;;-142.21;59.93;112049.66;5077506;28;20211;-71
2022/05/19 01:53:47;;;;;;;4.03;2.60;;;24.10;51.60;;;-142.21;59.85;112049.66;5089957;28;20286;-71
2022/05/19 01:56:22;;;;;;;2.43;2.20;;;24.00;50.80;;;-142.21;60.69;112049.66;5087796;28;20192;-72
2022/05/19 01:59:06;;;;;;;3.23;2.13;;;24.00;51.10;;;-142.21;61.02;112049.66;5081255;28;20478;-71
2022/05/19 02:01:33;;;;;;;3.10;2.17;;;24.00;51.10;;;-142.21;60.37;112049.66;5058244;28;20185;-70
2022/05/19 02:04:09;;;;;;;3.10;2.37;;;24.00;50.90;;;-142.21;60.14;112049.66;5080813;28;20228;-72
2022/05/19 02:06:41;;;;;;;3.97;2.60;;;23.90;50.90;;;-142.21;59.46;112049.66;5089464;28;20211;-70
2022/05/19 02:09:17;;;;;;;3.07;2.40;;;23.90;50.90;;;-142.21;59.69;112049.66;5072305;28;20193;-72
2022/05/19 02:11:50;;;;;;;3.43;2.50;;;23.80;50.80;;;-142.21;59.74;112049.66;5087282;28;20234;-71
2022/05/19 02:14:25;;;;;;;2.73;2.43;;;23.80;50.90;;;-142.21;59.79;112049.66;5083455;28;20647;-72
2022/05/19 02:16:53;;;;;;;3.43;2.20;;;23.80;50.90;;;-142.21;60.14;112049.66;5079271;28;20191;-72
2022/05/19 02:19:27;;;;;;;3.53;2.57;;;23.80;50.80;;;-142.21;60.14;112049.66;5092628;28;20561;-72
2022/05/19 02:21:56;;;;;;;3.53;2.40;;;23.70;50.80;;;-142.21;61.00;112049.66;5085597;28;20651;-72
2022/05/19 02:24:27;;;;;;;2.97;2.20;;;23.80;51.10;;;-142.21;62.94;112049.66;5072200;28;20207;-72
2022/05/19 02:26:54;;;;;;;4.10;2.50;;;23.80;51.50;;;-142.21;64.27;112049.66;5065645;28;20190;-73
2022/05/19 02:29:26;;;;;;;4.60;2.37;;;23.70;51.70;;;-142.21;65.11;112049.66;5071742;28;20246;-73
2022/05/19 02:31:54;;;;;;;2.10;2.00;;;23.60;51.90;;;-142.21;65.94;112049.66;5083750;28;20257;-73
2022/05/19 02:34:21;;;;;;;2.90;2.17;;;23.50;52.00;;;-142.21;66.59;112049.66;5074362;28;20208;-72
2022/05/19 02:36:48;;;;;;;3.27;2.57;;;23.50;52.20;;;-142.21;67.09;112049.66;5079854;28;20263;-72
2022/05/19 02:39:15;;;;;;;2.87;2.47;;;23.40;52.90;;;-142.21;67.33;112049.66;5075582;28;20208;-71
2022/05/19 02:41:42;;;;;;;2.57;2.37;;;23.40;52.40;;;-142.21;67.81;112049.66;5071275;28;20666;-72
2022/05/19 02:44:09;;;;;;;3.03;2.73;;;23.30;52.40;;;-142.21;68.12;112049.66;5086088;28;20201;-72
2022/05/19 02:46:38;;;;;;;2.30;2.10;;;23.30;52.50;;;-142.21;67.79;112049.66;5089322;28;20192;-72
2022/05/19 02:49:05;;;;;;;3.00;2.70;;;23.20;52.40;;;-142.21;68.21;112049.66;5086381;28;20213;-72
2022/05/19 02:51:32;;;;;;;2.43;2.23;;;23.20;52.50;;;-142.21;67.80;112049.66;5082293;28;20217;-72
2022/05/19 02:53:59;;;;;;;2.40;2.20;;;23.10;52.50;;;-142.21;68.64;112049.66;5071366;28;20233;-72
2022/05/19 02:56:26;;;;;;;2.50;2.30;;;23.10;52.70;;;-142.21;68.02;112049.66;5088015;28;20204;-71
2022/05/19 02:58:53;;;;;;;3.13;2.37;;;23.00;52.50;;;-142.21;67.22;112049.66;5071147;28;20235;-71
2022/05/19 03:01:21;;;;;;;2.97;2.60;;;23.00;52.40;;;-142.21;68.05;112049.66;5071598;28;20203;-72
2022/05/19 03:03:49;;;;;;;3.60;2.37;;;23.00;52.60;;;-142.21;66.72;112049.66;5075000;28;20234;-72
2022/05/19 03:06:16;;;;;;;4.03;2.63;;;23.00;52.40;;;-142.21;66.59;112049.66;5071825;28;20200;-72
2022/05/19 03:08:43;;;;;;;2.47;2.27;;;23.00;52.30;;;-142.21;66.24;112049.66;5090817;28;20232;-72
2022/05/19 03:11:10;;;;;;;2.40;2.20;;;23.00;52.30;;;-142.21;66.05;112049.66;5073791;28;20311;-72
2022/05/19 03:13:37;;;;;;;2.23;2.03;;;23.00;52.20;;;-142.21;65.05;112049.66;5089329;28;20296;-72
2022/05/19 03:16:08;;;;;;;2.40;2.10;;;23.00;52.10;;;-142.21;64.81;112049.66;5091948;28;20207;-72
2022/05/19 03:18:35;;;;;;;2.50;2.30;;;23.00;52.10;;;-142.21;64.69;112049.66;5079390;28;20288;-71
2022/05/19 03:21:04;;;;;;;2.50;2.30;;;22.90;51.90;;;-142.21;65.66;112049.66;5070963;28;20200;-71
2022/05/19 03:23:31;;;;;;;6.00;2.80;;;22.90;52.80;;;-142.21;65.71;112049.66;5079950;28;20197;-73
2022/05/19 03:25:58;;;;;;;3.37;2.47;;;22.90;52.20;;;-142.21;65.79;112049.66;5070678;28;21576;-73
2022/05/19 03:28:26;;;;;;;2.57;2.37;;;22.90;52.30;;;-142.21;66.08;112049.66;5071961;28;20224;-72
2022/05/19 03:30:53;;;;;;;2.93;2.13;;;22.80;52.40;;;-142.21;66.97;112049.66;5070646;28;20232;-73
2022/05/19 03:33:20;;;;;;;5.97;2.60;;;22.80;52.40;;;-142.21;66.93;112049.66;5075564;28;20201;-72
2022/05/19 03:35:57;;;;;;;2.70;2.40;;;22.80;52.60;;;-142.21;67.52;112049.66;5075624;28;20228;-72
2022/05/19 03:38:26;;;;;;;3.67;2.23;;;22.70;52.70;;;-142.21;67.77;112049.66;5075429;28;20242;-72
2022/05/19 03:40:53;;;;;;;2.90;2.50;;;22.70;52.70;;;-142.21;68.38;112049.66;5092690;28;20203;-72
2022/05/19 03:43:21;;;;;;;4.43;2.40;;;22.60;52.80;;;-142.21;69.13;112049.66;5086761;28;20284;-72
2022/05/19 03:45:48;;;;;;;2.40;2.20;;;22.50;53.00;;;-142.21;69.20;112049.66;5074197;28;20731;-72
2022/05/19 03:48:16;;;;;;;3.47;2.27;;;22.50;53.10;;;-142.21;68.79;112049.66;5082442;28;20212;-72
2022/05/19 03:50:46;;;;;;;3.83;2.40;;;22.50;53.00;;;-142.21;69.48;112049.66;5094456;28;20235;-72
2022/05/19 03:53:14;;;;;;;3.17;2.37;;;22.50;53.70;;;-142.21;69.94;112049.66;5065225;28;20214;-72
2022/05/19 03:55:44;;;;;;;3.67;2.20;;;22.50;53.20;;;-142.21;70.38;112049.66;5091106;28;20201;-72
2022/05/19 03:58:11;;;;;;;2.70;2.50;;;22.40;53.20;;;-142.21;69.65;112049.66;5077230;28;20254;-72
2022/05/19 04:00:38;;;;;;;3.53;2.27;;;22.40;53.10;;;-142.21;70.29;112049.66;5074520;28;20204;-73
2022/05/19 04:03:05;;;;;;;3.40;2.90;;;22.40;53.20;;;-142.21;70.22;112049.66;5079900;28;20205;-72
2022/05/19 04:05:32;;;;;;;5.87;2.60;;;22.40;53.30;;;-142.21;70.07;112049.66;5083823;28;20228;-72
2022/05/19 04:07:59;;;;;;;3.73;2.67;;;22.30;53.20;;;-142.21;69.83;112049.66;5093795;28;20236;-72
2022/05/19 04:10:26;;;;;;;4.83;2.60;;;22.40;53.20;;;-142.21;71.09;112049.66;5092794;28;20208;-72
2022/05/19 04:12:56;;;;;;;3.57;2.43;;;22.40;53.60;;;-142.21;71.38;112049.66;5084464;28;20205;-72
2022/05/19 04:15:23;;;;;;;4.63;2.60;;;22.40;53.60;;;-142.21;72.49;112049.66;5074503;28;20233;-72
2022/05/19 04:17:50;;;;;;;2.93;2.30;;;22.30;53.80;;;-142.21;71.90;112049.66;5084024;28;20203;-72
2022/05/19 04:20:17;;;;;;;2.80;2.40;;;22.30;53.70;;;-142.21;73.90;112049.66;5083656;28;20201;-71
2022/05/19 04:22:44;;;;;;;4.63;2.90;;;22.30;54.20;;;-142.21;73.32;112049.66;5085825;28;20196;-71
2022/05/19 04:25:13;;;;;;;3.57;2.50;;;22.30;54.00;;;-142.21;71.70;112049.66;5083871;28;20243;-72
2022/05/19 04:27:40;;;;;;;6.20;2.90;;;22.30;53.70;;;-142.21;75.18;112049.66;5092912;28;20203;-71
2022/05/19 04:30:11;;;;;;;4.20;2.70;;;22.40;54.40;;;-142.21;73.64;112049.66;5088849;28;20221;-72
2022/05/19 04:32:38;;;;;;;7.03;2.60;;;22.30;54.20;;;-142.21;74.21;112049.66;5080041;28;20220;-72
2022/05/19 04:35:06;;;;;;;3.73;2.40;;;22.30;54.20;;;-142.21;72.63;112049.66;5074401;28;20564;-72
2022/05/19 04:37:33;;;;;;;8.83;3.47;;;22.30;54.00;;;-142.21;75.60;112049.66;5083280;28;20197;-71
2022/05/19 04:40:01;;;;;;;5.17;2.80;;;22.30;54.70;;;-142.21;76.55;112049.66;5091765;28;20211;-72
2022/05/19 04:42:28;;;;;;;5.93;3.27;;;22.30;55.10;;;-142.21;77.87;112049.66;5060058;28;20251;-72
2022/05/19 04:44:56;;;;;;;5.17;3.23;;;22.30;55.20;;;-142.21;75.52;112049.66;5073642;28;20658;-72
2022/05/19 04:47:25;;;;;;;11.43;3.83;;;22.30;54.80;;;-142.21;78.51;112049.66;5062143;28;20201;-71
2022/05/19 04:49:55;;;;;;;7.40;3.17;;;22.30;55.30;;;-142.21;76.95;112049.66;5085307;28;20200;-72
2022/05/19 04:52:23;;;;;;;4.43;2.83;;;22.30;55.20;;;-142.21;76.75;112049.66;5081635;28;20217;-72
2022/05/19 04:54:52;;;;;;;3.43;2.97;;;22.30;55.20;;;-142.21;77.37;112049.66;5073661;28;20742;-72
2022/05/19 04:57:19;;;;;;;3.60;2.73;;;22.30;55.20;;;-142.21;77.87;112049.66;5079749;28;20313;-71
2022/05/19 04:59:49;;;;;;;2.40;2.20;;;22.30;55.20;;;-142.21;79.24;112049.66;5085245;28;20237;-71
2022/05/19 05:02:16;;;;;;;2.20;1.93;;;22.30;55.80;;;-142.21;77.78;112049.66;5074765;28;20618;-72
2022/05/19 05:04:45;;;;;;;2.53;2.33;;;22.30;55.20;;;-142.21;76.49;112049.66;5073151;28;20252;-72
2022/05/19 05:07:12;;;;;;;2.40;2.20;;;22.30;55.00;;;-142.21;78.95;112049.66;5089628;28;20204;-72
2022/05/19 05:09:39;;;;;;;2.67;2.47;;;22.40;55.50;;;-142.21;78.25;112049.66;5058026;28;20199;-72
2022/05/19 05:12:08;;;;;;;3.20;2.30;;;22.40;55.30;;;-142.21;78.22;112049.66;5075998;28;20236;-72
2022/05/19 05:14:35;;;;;;;3.10;2.47;;;22.40;55.40;;;-142.21;79.24;112049.66;5074416;28;20277;-72
2022/05/19 05:17:02;;;;;;;3.67;2.00;;;22.50;55.70;;;-142.21;77.88;112049.66;5078253;28;20208;-72
2022/05/19 05:19:29;;;;;;;2.67;2.40;;;22.50;55.40;;;-142.21;76.95;112049.66;5093624;28;20291;-72
2022/05/19 05:22:00;;;;;;;2.83;2.30;;;22.60;55.20;;;-142.21;75.93;112049.66;5090153;28;20197;-72
2022/05/19 05:24:28;;;;;;;2.40;2.20;;;22.60;55.50;;;-142.21;74.38;112049.66;5079652;28;20189;-72
2022/05/19 05:26:55;;;;;;;2.43;2.10;;;22.70;54.50;;;-142.21;72.17;112049.66;5076157;28;20197;-72
2022/05/19 05:29:25;;;;;;;5.20;2.43;;;22.70;53.90;;;-142.21;71.70;112049.66;5072943;28;20312;-72
2022/05/19 05:31:53;;;;;;;3.23;2.40;;;22.80;53.80;;;-142.21;72.21;112049.66;5073382;28;20246;-72
2022/05/19 05:34:20;;;;;;;6.03;2.50;;;22.90;53.80;;;-142.21;72.65;112049.66;5066906;28;20207;-72
2022/05/19 05:36:47;;;;;;;2.37;2.17;;;23.00;54.00;;;-142.21;71.45;112049.66;5090729;28;20201;-72
2022/05/19 05:39:15;;;;;;;4.27;2.47;;;23.10;53.80;;;-142.21;72.02;112049.66;5089663;28;20201;-72
2022/05/19 05:41:42;;;;;;;3.07;2.10;;;23.10;53.70;;;-142.21;69.86;112049.66;5091085;28;20205;-71
2022/05/19 05:44:10;;;;;;;2.90;2.57;;;23.20;53.10;;;-142.21;67.83;112049.66;5087032;28;20211;-72
2022/05/19 05:46:37;;;;;;;4.87;2.07;;;23.30;52.90;;;-142.21;68.01;112049.66;5088569;28;20204;-72
2022/05/19 05:49:06;;;;;;;2.23;2.03;;;23.40;52.80;;;-142.21;69.80;112049.66;5092232;28;20235;-72
2022/05/19 05:51:33;;;;;;;3.13;2.30;;;23.50;53.30;;;-142.21;68.64;112049.66;5091001;28;20254;-71
2022/05/19 05:54:00;;;;;;;2.23;1.90;;;23.50;52.90;;;-142.21;65.73;112049.66;5072989;28;20660;-71
2022/05/19 05:56:30;;;;;;;2.03;1.90;;;23.60;52.30;;;-142.21;62.46;112049.66;5072036;28;20295;-71
2022/05/19 05:58:57;;;;;;;3.10;2.00;;;23.60;51.60;;;-142.21;65.75;112049.66;5071839;28;20197;-71
2022/05/19 06:01:24;;;;;;;3.87;2.00;;;23.70;52.20;;;-142.21;62.42;112049.66;5072100;28;20200;-72
2022/05/19 06:03:52;;;;;;;2.37;2.17;;;23.80;51.60;;;-142.21;63.04;112049.66;5071665;28;20235;-71
2022/05/19 06:06:19;;;;;;;2.67;2.20;;;23.80;51.30;;;-142.21;61.26;112049.66;5072043;28;20224;-73
2022/05/19 06:08:46;;;;;;;2.40;1.83;;;23.90;51.10;;;-142.21;64.53;112049.66;5072550;28;20207;-72
2022/05/19 06:11:14;;;;;;;2.50;2.30;;;24.00;51.80;;;-142.21;63.46;112049.66;5072360;28;20204;-72
2022/05/19 06:13:44;;;;;;;3.00;2.10;;;24.00;51.50;;;-142.21;63.81;112049.66;5071216;28;20628;-71
2022/05/19 06:16:12;;;;;;;2.67;2.10;;;24.10;51.50;;;-142.21;61.72;112049.66;5073055;28;20201;-71
2022/05/19 06:18:39;;;;;;;3.37;2.80;;;24.10;51.10;;;-142.21;60.66;112049.66;5071983;28;20215;-72
2022/05/19 06:21:07;;;;;;;2.83;2.03;;;24.10;50.90;;;-142.21;60.72;112049.66;5072325;28;20296;-71
2022/05/19 06:23:35;;;;;;;2.80;1.90;;;24.20;50.90;;;-142.21;59.10;112049.66;5084179;28;20213;-72
2022/05/19 06:26:02;;;;;;;2.00;1.90;;;24.30;50.50;;;-142.21;59.66;112049.66;5086186;28;20200;-71
2022/05/19 06:28:29;;;;;;;3.00;2.10;;;24.30;50.50;;;-142.21;60.01;112049.66;5091988;28;20724;-73
2022/05/19 06:31:01;;;;;;;2.70;2.20;;;24.40;50.70;;;-142.21;60.39;112049.66;5089956;28;20296;-73
2022/05/19 06:33:29;;;;;;;2.10;2.00;;;24.40;50.90;;;-142.21;59.90;112049.66;5092376;28;20278;-72
2022/05/19 06:35:56;;;;;;;2.93;2.10;;;24.50;50.80;;;-142.21;62.43;112049.66;5078719;28;20215;-72
2022/05/19 06:38:23;;;;;;;2.97;2.00;;;24.60;51.20;;;-142.21;61.32;112049.66;5080154;28;20201;-72
2022/05/19 06:40:50;;;;;;;2.00;1.90;;;24.70;51.00;;;-142.21;57.68;112049.66;5078007;28;20309;-72
2022/05/19 06:43:19;;;;;;;1.93;1.83;;;24.70;49.90;;;-142.21;58.13;112049.66;5077012;28;20275;-72
2022/05/19 06:45:46;;;;;;;2.70;1.97;;;24.60;50.30;;;-142.21;56.82;112049.66;5072038;28;20563;-71
2022/05/19 06:48:15;;;;;;;3.10;2.17;;;24.60;49.90;;;-142.21;55.77;112049.66;5071167;28;20240;-72
2022/05/19 06:50:42;;;;;;;2.20;2.00;;;24.70;49.60;;;-142.21;56.66;112049.66;5072329;28;20203;-72
2022/05/19 06:53:09;;;;;;;2.77;2.00;;;24.80;50.00;;;-142.21;55.50;112049.66;5077229;28;20274;-72
2022/05/19 06:55:38;;;;;;;2.40;2.10;;;24.90;49.70;;;-142.21;55.01;112049.66;5091441;28;20208;-72
2022/05/19 06:58:06;;;;;;;2.30;2.03;;;24.90;49.50;;;-142.21;55.85;112049.66;5091432;28;20207;-71
2022/05/19 07:00:34;;;;;;;2.97;2.10;;;25.00;49.50;;;-142.21;54.35;112049.66;5090412;28;20265;-72
2022/05/19 07:03:02;;;;;;;2.20;2.10;;;25.10;49.00;;;-142.21;54.51;112049.66;5091315;28;20200;-72
2022/05/19 07:05:35;;;;;;;2.30;2.10;;;25.20;49.00;;;-142.21;54.24;112049.66;5083550;28;20232;-72
2022/05/19 07:08:02;;;;;;;2.27;2.07;;;25.30;49.00;;;-142.21;54.98;112049.66;5084834;28;20192;-72
2022/05/19 07:10:30;;;;;;;3.53;2.63;;;25.40;49.10;;;-142.21;54.90;112049.66;5094405;28;20614;-72
2022/05/19 07:12:58;;;;;;;2.80;2.27;;;25.40;49.10;;;-142.21;55.85;112049.66;5095350;28;20232;-72
2022/05/19 07:15:27;;;;;;;5.10;2.70;;;25.50;49.20;;;-142.21;55.30;112049.66;5090390;28;20200;-72
2022/05/19 07:17:54;;;;;;;2.40;2.07;;;25.50;49.20;;;-142.21;55.10;112049.66;5074774;28;20207;-72
2022/05/19 07:23:09;;;;;;;5.37;2.50;;;25.70;49.30;;;-142.21;57.49;112049.66;5081795;28;20201;-72
2022/05/19 07:25:36;;;;;;;2.57;2.37;;;25.80;49.60;;;-142.21;55.66;112049.66;5075669;28;20292;-72
2022/05/19 07:28:03;;;;;;;2.80;2.00;;;26.00;49.40;;;-142.21;57.03;112049.66;5074648;28;20212;-71
2022/05/19 07:30:31;;;;;;;4.20;2.40;;;26.00;49.50;;;-142.21;54.13;112049.66;5076117;28;20197;-72
2022/05/19 07:32:59;;;;;;;2.97;2.20;;;26.20;48.80;;;-142.21;53.31;112049.66;5074581;28;20224;-71
2022/05/19 07:35:27;;;;;;;2.67;2.43;;;26.20;48.90;;;-142.21;53.13;112049.66;5077528;28;20208;-73
2022/05/19 07:37:54;;;;;;;3.87;2.37;;;26.30;48.20;;;-142.21;52.43;112049.66;5084235;28;20197;-72
2022/05/19 07:40:23;;;;;;;3.20;2.17;;;26.50;48.60;;;-142.21;51.85;112049.66;5076021;28;20192;-71
2022/05/19 07:42:50;;;;;;;3.57;2.20;;;26.50;47.90;;;-142.21;52.54;112049.66;5074661;28;20658;-73
2022/05/19 07:45:18;;;;;;;4.00;2.40;;;26.60;47.90;;;-142.21;51.43;112049.66;5075237;28;20212;-72
2022/05/19 07:47:45;;;;;;;4.47;2.30;;;26.70;47.50;;;-142.21;51.63;112049.66;5054706;28;20216;-73
2022/05/19 07:50:13;;;;;;;3.10;2.20;;;26.80;47.50;;;-142.21;51.11;112049.66;5061734;28;20200;-72
2022/05/19 07:52:41;;;;;;;2.83;2.20;;;27.00;47.60;;;-142.21;50.92;112049.66;5084844;28;20227;-72
2022/05/19 07:55:10;;;;;;;2.40;2.20;;;27.10;47.20;;;-142.21;51.04;112049.66;5079504;28;20304;-71
2022/05/19 07:57:39;;;;;;;3.57;2.40;;;27.20;47.30;;;-142.21;49.72;112049.66;5074337;28;20300;-73
2022/05/19 08:00:08;;;;;;;6.87;2.80;;;27.30;46.70;;;-142.21;49.55;112049.66;5075054;28;20227;-73
2022/05/19 08:02:35;;;;;;;2.83;2.57;;;27.40;46.70;;;-142.21;49.23;112049.66;5074463;28;20242;-73
2022/05/19 08:05:02;;;;;;;5.73;2.27;;;27.50;46.60;;;-142.21;49.50;112049.66;5086450;28;20319;-72
2022/05/19 08:07:29;;;;;;;2.70;2.50;;;27.50;46.70;;;-142.21;49.77;112049.66;5083108;28;20293;-72
2022/05/19 08:15:36;;;;;;;2.83;2.40;;;27.80;46.20;;;-142.21;46.94;112049.66;5089553;28;20711;-72
2022/05/19 08:18:08;;;;;;;2.50;2.30;;;27.90;45.70;;;-142.21;47.03;112049.66;5093399;28;20211;-71
2022/05/19 08:20:39;;;;;;;3.87;2.40;;;28.00;45.70;;;-142.21;46.40;112049.66;5092159;28;20217;-72
2022/05/19 08:23:08;;;;;;;4.03;2.40;;;28.10;45.20;;;-142.21;44.90;112049.66;5093423;28;20238;-72
2022/05/19 08:25:35;;;;;;;5.10;2.50;;;28.10;44.80;;;-142.21;45.95;112049.66;5093618;28;20558;-72
2022/05/19 08:28:04;;;;;;;2.43;2.17;;;28.20;45.00;;;-142.21;46.26;112049.66;5093939;28;20300;-71
2022/05/19 08:30:31;;;;;;;3.67;2.50;;;28.40;45.10;;;-142.21;44.53;112049.66;5092541;28;20203;-71
2022/05/19 08:32:59;;;;;;;2.97;2.37;;;28.50;44.60;;;-142.21;43.23;112049.66;5093180;28;20781;-71
2022/05/19 08:35:26;;;;;;;2.53;2.33;;;28.60;43.90;;;-142.21;43.50;112049.66;5081370;28;20203;-71
2022/05/19 08:37:53;;;;;;;2.70;2.50;;;28.60;44.20;;;-142.21;42.77;112049.66;5093757;28;20207;-70
2022/05/19 08:40:21;;;;;;;3.47;2.40;;;28.70;43.70;;;-142.21;42.28;112049.66;5091784;28;20788;-73
2022/05/19 08:42:59;;;;;;;2.50;2.20;;;28.60;43.30;;;-142.21;43.49;112049.66;5094321;28;20283;-72
2022/05/19 08:45:43;;;;;;;5.13;2.93;;;28.60;44.00;;;-142.21;43.54;112049.66;5075489;28;20198;-72
2022/05/19 08:48:15;;;;;;;2.60;2.40;;;28.60;44.10;;;-142.21;43.55;112049.66;5073187;28;20462;-71
2022/05/19 08:50:52;;;;;;;3.37;2.83;;;28.80;44.40;;;-142.21;44.44;112049.66;5080770;28;20191;-73
2022/05/19 08:53:20;;;;;;;3.50;2.73;;;28.90;44.70;;;-142.21;43.89;112049.66;5073216;28;20257;-72
2022/05/19 08:55:54;;;;;;;5.70;2.50;;;28.90;44.50;;;-142.21;44.23;112049.66;5073421;28;20253;-72
2022/05/19 08:58:52;;;;;;;3.23;2.60;;;29.10;44.70;;;-142.21;43.26;112049.66;5072975;28;20197;-71
2022/05/19 09:01:31;;;;;;;3.13;2.83;;;29.20;44.10;;;-142.21;43.72;112049.66;5072218;28;20208;-73
2022/05/19 09:04:18;;;;;;;4.77;3.03;;;29.30;44.30;;;-142.21;43.43;112049.66;5072751;28;20331;-73
2022/05/19 09:10:06;;;;;;;3.90;2.73;;;29.50;44.90;;;-142.21;44.55;112049.66;5093544;28;20709;-72
2022/05/19 09:12:39;;;;;;;5.83;2.70;;;29.60;44.50;;;-142.21;44.00;112049.66;5070496;28;20300;-72
2022/05/19 09:15:10;;;;;;;3.10;2.90;;;29.70;44.30;;;-142.21;42.72;112049.66;5052584;28;20232;-73
2022/05/19 09:17:46;;;;;;;4.60;2.60;;;29.70;43.40;;;-142.21;43.52;112049.66;5053094;28;20197;-72
2022/05/19 09:20:21;;;;;;;2.80;2.60;;;29.60;44.10;;;-142.21;44.47;112049.66;5060297;28;20545;-72
2022/05/19 09:22:48;;;;;;;2.73;2.53;;;29.70;44.50;;;-142.21;43.88;112049.66;5091904;28;20212;-73
2022/05/19 09:25:21;;;;;;;3.93;2.73;;;29.80;44.40;;;-142.21;43.89;112049.66;5079642;28;20555;-72
2022/05/19 09:27:51;;;;;;;6.27;2.83;;;29.80;44.40;;;-142.21;42.83;112049.66;5073263;28;20616;-70
2022/05/19 09:30:36;;;;;;;6.77;3.10;;;29.70;43.60;;;-142.21;43.14;112049.66;5082683;28;20231;-74
2022/05/19 09:33:14;;;;;;;3.27;2.97;;;29.60;44.00;;;-142.21;43.71;112049.66;5090765;28;20330;-71
2022/05/19 09:35:48;;;;;;;3.87;3.00;;;29.60;44.30;;;-142.21;44.39;112049.66;5086330;28;20529;-71
2022/05/19 09:38:31;;;;;;;3.27;2.90;;;29.70;45.10;;;-142.21;44.90;112049.66;5086396;28;20572;-72
2022/05/19 09:41:03;;;;;;;3.70;3.17;;;29.80;45.00;;;-142.21;44.12;112049.66;5073070;28;20204;-71
2022/05/19 09:43:36;;;;;;;3.53;2.87;;;29.90;44.40;;;-142.21;44.90;112049.66;5073535;28;20196;-72
2022/05/19 09:46:11;;;;;;;2.63;2.40;;;30.10;45.00;;;-142.21;44.74;112049.66;5072034;28;20210;-71
2022/05/19 09:48:46;;;;;;;3.10;2.80;;;30.20;44.80;;;-142.21;43.79;112049.66;5080265;28;20226;-72
2022/05/19 09:51:17;;;;;;;3.20;2.70;;;30.30;44.20;;;-142.21;44.49;112049.66;5078939;28;20538;-72
2022/05/19 09:53:50;;;;;;;3.80;3.10;;;30.50;44.70;;;-142.21;44.78;112049.66;5073561;28;20235;-74
2022/05/19 09:56:22;;;;;;;3.43;3.13;;;30.70;44.70;;;-142.21;43.58;112049.66;5071804;28;20184;-72
2022/05/19 09:58:52;;;;;;;4.00;3.00;;;30.70;44.00;;;-142.21;42.85;112049.66;5080639;28;20659;-71
2022/05/19 10:01:29;;;;;;;5.13;3.20;;;30.80;43.60;;;-142.21;42.64;112049.66;5092058;28;20184;-73
2022/05/19 10:04:01;;;;;;;4.40;3.00;;;30.80;43.60;;;-142.21;42.34;112049.66;5090566;28;20224;-72
2022/05/19 10:06:40;;;;;;;3.60;3.30;;;30.90;43.30;;;-142.21;42.46;112049.66;5073068;28;20282;-71
2022/05/19 10:09:14;;;;;;;3.57;2.93;;;30.80;43.30;;;-142.21;42.46;112049.66;5071905;28;20271;-72
2022/05/19 10:11:52;;;;;;;3.80;3.10;;;30.90;43.70;;;-142.21;41.66;112049.66;5067604;28;20195;-72
2022/05/19 10:14:26;;;;;;;4.77;3.80;;;30.90;42.90;;;-142.21;41.97;112049.66;5051431;28;20220;-73
2022/05/19 10:17:07;;;;;;;4.03;3.20;;;31.00;43.30;;;-142.21;42.28;112049.66;5060242;28;20191;-72
2022/05/19 10:19:53;;;;;;;5.30;3.00;;;31.10;43.30;;;-142.21;41.69;112049.66;5076825;28;20228;-72
2022/05/19 10:22:56;;;;;;;4.00;3.20;;;31.20;43.60;;;-142.21;42.49;112049.66;5081733;28;20189;-72
2022/05/19 10:25:53;;;;;;;3.53;3.10;;;31.30;43.10;;;-142.21;42.26;112049.66;5071172;28;20274;-73